Time;durP1;ratioP1;P1;durP2;ratioP2;P2;SDS_P1;SDS_P2;PMS_P1;PMS_P2;Temp;Humidity;BMP_temperature;BMP_pressure;BME280_temperature;BME280_humidity;BME280_pressure;Samples;Min_cycle;Max_cycle;Signal;HPM_P1;HPM_P2
2022/11/29 00:00:29;;;;;;;8.90;7.73;;;7.10;99.90;;;;;;5020224;28;20192;-85
2022/11/29 00:02:55;;;;;;;10.20;7.80;;;7.10;99.90;;;;;;5039046;28;20451;-84
2022/11/29 00:05:20;;;;;;;10.10;8.10;;;7.10;99.90;;;;;;5005645;28;20213;-84
2022/11/29 00:07:46;;;;;;;11.30;8.27;;;7.10;99.90;;;;;;5003273;28;20249;-85
2022/11/29 00:10:12;;;;;;;8.57;7.47;;;7.10;99.90;;;;;;5021259;28;20693;-85
2022/11/29 00:12:38;;;;;;;8.90;7.13;;;7.10;99.90;;;;;;5038533;28;20902;-85
2022/11/29 00:15:04;;;;;;;8.83;7.70;;;7.20;99.90;;;;;;5004810;28;20900;-85
2022/11/29 00:17:29;;;;;;;10.00;7.57;;;7.20;99.90;;;;;;5007873;28;20186;-85
2022/11/29 00:19:55;;;;;;;7.60;6.57;;;7.20;99.90;;;;;;5040318;28;20452;-84
2022/11/29 00:22:22;;;;;;;9.07;7.03;;;7.30;99.90;;;;;;5023904;28;20285;-85
2022/11/29 00:24:48;;;;;;;9.77;7.40;;;7.30;99.90;;;;;;5024690;28;20707;-85
2022/11/29 00:27:13;;;;;;;8.00;6.93;;;7.20;99.90;;;;;;5058892;28;20182;-84
2022/11/29 00:29:39;;;;;;;9.43;7.80;;;7.20;99.90;;;;;;5024443;28;20189;-85
2022/11/29 00:32:04;;;;;;;14.17;8.10;;;7.20;99.90;;;;;;5023919;28;20850;-85
2022/11/29 00:34:30;;;;;;;8.33;6.97;;;7.20;99.90;;;;;;5023083;28;20243;-85
2022/11/29 00:36:58;;;;;;;10.50;7.40;;;7.20;99.90;;;;;;5023341;28;20184;-85
2022/11/29 00:39:24;;;;;;;10.13;7.93;;;7.30;99.90;;;;;;5023203;28;20193;-86
2022/11/29 00:41:50;;;;;;;12.07;7.15;;;7.30;99.90;;;;;;5009623;28;20221;-86
2022/11/29 00:44:15;;;;;;;9.17;7.20;;;7.30;99.90;;;;;;5018885;28;20190;-86
2022/11/29 00:46:41;;;;;;;8.97;6.83;;;7.30;99.90;;;;;;5018293;28;20178;-86
2022/11/29 00:49:07;;;;;;;12.83;7.03;;;7.40;99.90;;;;;;5018943;28;20185;-86
2022/11/29 00:51:32;;;;;;;12.67;6.80;;;7.40;99.90;;;;;;5018324;28;20209;-85
2022/11/29 00:53:58;;;;;;;10.63;7.80;;;7.40;99.90;;;;;;5002470;28;20200;-85
2022/11/29 00:56:24;;;;;;;13.70;7.23;;;7.40;99.90;;;;;;5017943;28;20701;-84
2022/11/29 00:58:49;;;;;;;11.30;7.20;;;7.40;99.90;;;;;;5018629;28;20190;-85
2022/11/29 01:01:15;;;;;;;9.60;6.60;;;7.40;99.90;;;;;;5035856;28;20285;-85
2022/11/29 01:03:44;;;;;;;16.70;6.87;;;7.50;99.90;;;;;;5036044;28;20208;-85
2022/11/29 01:06:12;;;;;;;9.25;6.38;;;7.40;99.90;;;;;;5035696;28;20427;-84
2022/11/29 01:08:38;;;;;;;8.55;6.40;;;7.40;99.90;;;;;;5018491;28;20317;-85
2022/11/29 01:11:24;;;;;;;11.82;7.60;;;7.40;99.90;;;;;;5035948;28;20204;-85
2022/11/29 01:13:53;;;;;;;12.48;6.80;;;7.40;99.90;;;;;;5035903;28;20177;-85
2022/11/29 01:16:19;;;;;;;9.30;7.22;;;7.30;99.90;;;;;;5035866;28;20177;-84
2022/11/29 01:18:45;;;;;;;7.75;6.95;;;7.20;99.90;;;;;;5035389;28;20260;-84
2022/11/29 01:21:16;;;;;;;13.17;6.70;;;7.20;99.90;;;;;;5036178;28;20245;-84
2022/11/29 01:23:42;;;;;;;16.77;6.93;;;7.30;99.90;;;;;;5036911;28;20289;-85
2022/11/29 01:26:14;;;;;;;12.75;8.52;;;7.30;99.90;;;;;;5035808;28;20178;-85
2022/11/29 01:28:40;;;;;;;9.02;7.72;;;7.30;99.90;;;;;;5035666;28;20220;-85
2022/11/29 01:31:11;;;;;;;10.63;7.38;;;7.40;99.90;;;;;;5017815;28;20254;-84
2022/11/29 01:33:37;;;;;;;9.60;8.13;;;7.50;99.90;;;;;;5035489;28;20171;-85
2022/11/29 01:36:04;;;;;;;17.40;8.23;;;7.50;99.90;;;;;;5017795;28;20583;-85
2022/11/29 01:38:30;;;;;;;10.13;7.22;;;7.50;99.90;;;;;;5035520;28;20408;-85
2022/11/29 01:41:00;;;;;;;10.27;8.83;;;7.50;99.90;;;;;;5035327;28;20271;-84
2022/11/29 01:43:26;;;;;;;13.35;7.20;;;7.50;99.90;;;;;;5035351;28;20170;-84
2022/11/29 01:45:52;;;;;;;14.32;7.75;;;7.50;99.90;;;;;;5035071;28;20197;-85
2022/11/29 01:48:24;;;;;;;9.48;6.68;;;7.60;99.90;;;;;;5001220;28;20193;-85
2022/11/29 01:50:53;;;;;;;14.13;7.10;;;7.60;99.90;;;;;;5017389;28;20182;-87
2022/11/29 01:53:19;;;;;;;12.70;7.55;;;7.70;99.90;;;;;;5034990;28;20175;-85
2022/11/29 01:55:51;;;;;;;8.50;7.38;;;7.60;99.90;;;;;;5035302;28;20214;-85
2022/11/29 01:58:17;;;;;;;11.13;6.90;;;7.70;99.90;;;;;;5035206;28;20189;-85
2022/11/29 02:00:43;;;;;;;11.00;8.53;;;7.60;99.90;;;;;;5017280;28;20307;-85
2022/11/29 02:03:11;;;;;;;10.63;7.40;;;7.60;99.90;;;;;;5017390;28;20178;-86
2022/11/29 02:05:42;;;;;;;13.50;7.28;;;7.60;99.90;;;;;;5035025;28;20448;-85
2022/11/29 02:08:13;;;;;;;10.35;8.15;;;7.60;99.90;;;;;;5033828;28;20222;-85
2022/11/29 02:10:51;;;;;;;11.95;7.50;;;7.60;99.90;;;;;;5035092;28;20166;-85
2022/11/29 02:13:36;;;;;;;12.88;7.22;;;7.60;99.90;;;;;;5016973;28;20198;-86
2022/11/29 02:16:15;;;;;;;11.35;7.60;;;7.60;99.90;;;;;;5034602;28;20523;-85
2022/11/29 02:19:11;;;;;;;8.13;7.25;;;7.60;99.90;;;;;;5034455;28;20649;-85
2022/11/29 02:21:48;;;;;;;16.45;7.32;;;7.70;99.90;;;;;;5017087;28;20209;-85
2022/11/29 02:24:43;;;;;;;10.68;7.45;;;7.70;99.90;;;;;;5034389;28;20629;-85
2022/11/29 02:27:32;;;;;;;11.85;6.90;;;7.70;99.90;;;;;;5016673;28;20236;-85
2022/11/29 02:30:19;;;;;;;11.20;7.57;;;7.80;99.90;;;;;;5035020;28;20173;-85
2022/11/29 02:32:51;;;;;;;12.13;7.82;;;7.70;99.90;;;;;;5034918;28;20175;-85
2022/11/29 02:35:46;;;;;;;11.23;7.68;;;7.80;99.90;;;;;;5034452;28;20174;-85
2022/11/29 02:38:32;;;;;;;16.35;7.18;;;7.80;99.90;;;;;;5023486;28;20241;-85
2022/11/29 02:41:24;;;;;;;17.85;8.00;;;7.70;99.90;;;;;;5016495;28;20666;-86
2022/11/29 02:44:21;;;;;;;12.73;7.30;;;7.80;99.90;;;;;;5016572;28;20229;-85
2022/11/29 02:47:23;;;;;;;10.85;7.00;;;7.80;99.90;;;;;;5034870;28;20216;-85
2022/11/29 02:50:39;;;;;;;10.50;7.78;;;7.90;99.90;;;;;;5035264;28;20166;-85
2022/11/29 02:53:41;;;;;;;9.55;7.30;;;7.90;99.90;;;;;;4990326;28;20195;-85
2022/11/29 02:56:21;;;;;;;13.48;8.13;;;7.90;99.90;;;;;;4992567;28;20665;-85
2022/11/29 02:59:02;;;;;;;11.63;7.90;;;7.90;99.90;;;;;;5034167;28;20171;-84
2022/11/29 03:01:34;;;;;;;15.98;7.57;;;7.90;99.90;;;;;;5034415;28;20198;-85
2022/11/29 03:04:26;;;;;;;15.57;9.70;;;7.90;99.90;;;;;;5034319;28;20174;-86
2022/11/29 03:07:12;;;;;;;16.58;9.85;;;8.00;99.90;;;;;;5016612;28;20666;-85
2022/11/29 03:09:44;;;;;;;15.85;8.68;;;8.00;99.90;;;;;;5034311;28;20162;-85
2022/11/29 03:12:40;;;;;;;15.50;8.27;;;7.90;99.90;;;;;;5034270;28;20619;-87
2022/11/29 03:15:29;;;;;;;12.45;7.50;;;8.00;99.90;;;;;;5000579;28;20182;-85
2022/11/29 03:18:20;;;;;;;11.07;7.85;;;7.80;99.90;;;;;;5034447;28;20205;-86
2022/11/29 03:21:07;;;;;;;14.38;8.98;;;7.70;99.90;;;;;;5038281;28;20210;-85
2022/11/29 03:23:36;;;;;;;14.25;8.85;;;7.80;99.90;;;;;;5038285;28;20214;-85
2022/11/29 03:26:17;;;;;;;15.18;8.52;;;7.80;99.90;;;;;;5038244;28;20184;-85
2022/11/29 03:29:06;;;;;;;18.50;8.88;;;7.80;99.90;;;;;;5020598;28;20240;-84
2022/11/29 03:32:00;;;;;;;21.90;8.40;;;7.80;99.90;;;;;;5038188;28;20296;-85
2022/11/29 03:34:44;;;;;;;18.70;9.45;;;7.70;99.90;;;;;;5038034;28;20174;-85
2022/11/29 03:37:27;;;;;;;24.20;9.63;;;7.80;99.90;;;;;;5037584;28;20220;-85
2022/11/29 03:40:07;;;;;;;16.45;8.80;;;7.80;99.90;;;;;;5037760;28;20548;-85
2022/11/29 03:42:41;;;;;;;20.48;9.30;;;7.80;99.90;;;;;;5037825;28;20205;-85
2022/11/29 03:45:30;;;;;;;17.23;9.05;;;7.80;99.90;;;;;;5037508;28;20221;-85
2022/11/29 03:48:19;;;;;;;12.40;9.25;;;7.90;99.90;;;;;;5037621;28;20174;-87
2022/11/29 03:50:56;;;;;;;21.42;11.35;;;7.80;99.90;;;;;;5020066;28;20197;-85
2022/11/29 03:53:37;;;;;;;18.95;10.65;;;7.90;99.90;;;;;;5037697;28;20228;-85
2022/11/29 03:56:26;;;;;;;19.63;10.77;;;7.80;99.90;;;;;;5037141;28;20652;-85
2022/11/29 03:59:04;;;;;;;21.98;11.10;;;7.90;99.90;;;;;;5020084;28;20186;-85
2022/11/29 04:02:12;;;;;;;18.73;11.82;;;7.90;99.90;;;;;;5037533;28;20324;-85
2022/11/29 04:05:13;;;;;;;33.65;12.48;;;7.90;99.90;;;;;;5036799;28;20534;-85
2022/11/29 04:07:53;;;;;;;18.63;11.60;;;7.90;99.90;;;;;;5019576;28;20236;-86
2022/11/29 04:10:50;;;;;;;22.20;13.13;;;8.00;99.90;;;;;;5037598;28;20534;-85
2022/11/29 04:13:52;;;;;;;22.58;10.13;;;8.00;99.90;;;;;;5037137;28;20213;-86
2022/11/29 04:16:52;;;;;;;23.95;11.60;;;8.10;99.90;;;;;;5037344;28;20178;-85
2022/11/29 04:19:48;;;;;;;18.38;11.30;;;8.10;99.90;;;;;;5018672;28;20692;-85
2022/11/29 04:22:42;;;;;;;21.10;10.05;;;8.00;99.90;;;;;;5018415;28;20658;-85
2022/11/29 04:25:34;;;;;;;20.45;10.70;;;8.00;99.90;;;;;;5018616;28;20197;-86
2022/11/29 04:28:29;;;;;;;16.50;10.43;;;8.00;99.90;;;;;;5019037;28;20651;-86
2022/11/29 04:31:36;;;;;;;20.75;11.23;;;8.10;99.90;;;;;;5007265;28;20197;-85
2022/11/29 04:34:27;;;;;;;25.25;11.48;;;8.00;99.90;;;;;;5018535;28;20276;-86
2022/11/29 04:37:14;;;;;;;18.40;10.85;;;8.10;99.90;;;;;;5036801;28;20577;-85
2022/11/29 04:40:14;;;;;;;16.77;11.50;;;8.00;99.90;;;;;;5018970;28;20638;-85
2022/11/29 04:43:10;;;;;;;20.65;11.07;;;8.00;99.90;;;;;;5019076;28;20662;-85
2022/11/29 04:45:50;;;;;;;17.23;11.00;;;8.00;99.90;;;;;;5019065;28;20578;-85
2022/11/29 04:48:28;;;;;;;22.70;12.93;;;7.90;99.90;;;;;;5036325;28;20162;-85
2022/11/29 04:51:31;;;;;;;24.10;12.10;;;7.90;99.90;;;;;;5036077;28;20221;-85
2022/11/29 04:54:15;;;;;;;20.50;11.73;;;7.90;99.90;;;;;;5036196;28;20173;-85
2022/11/29 04:56:51;;;;;;;25.55;11.35;;;8.00;99.90;;;;;;5036413;28;20167;-86
2022/11/29 04:59:24;;;;;;;22.25;12.05;;;8.10;99.90;;;;;;5018578;28;20781;-85
2022/11/29 05:01:57;;;;;;;22.98;13.07;;;8.00;99.90;;;;;;5036399;28;20199;-85
2022/11/29 05:04:46;;;;;;;18.80;11.65;;;8.00;99.90;;;;;;5018379;28;20182;-85
2022/11/29 05:07:32;;;;;;;21.00;12.30;;;8.00;99.90;;;;;;5017649;28;20312;-85
2022/11/29 05:10:23;;;;;;;26.33;12.77;;;8.10;99.90;;;;;;5018498;28;20273;-85
2022/11/29 05:13:04;;;;;;;22.58;12.80;;;7.90;99.90;;;;;;5036042;28;20170;-85
2022/11/29 05:15:40;;;;;;;21.27;13.15;;;8.00;99.90;;;;;;5017881;28;20178;-85
2022/11/29 05:18:31;;;;;;;36.67;15.50;;;7.90;99.90;;;;;;5017857;28;20257;-84
2022/11/29 05:21:19;;;;;;;29.35;14.20;;;8.00;99.90;;;;;;5018057;28;20218;-84
2022/11/29 05:24:41;;;;;;;26.55;16.27;;;8.00;99.90;;;;;;5035655;28;20170;-84
2022/11/29 05:27:45;;;;;;;28.52;15.63;;;8.00;99.90;;;;;;4955287;28;20187;-84
2022/11/29 05:30:20;;;;;;;30.73;14.70;;;8.00;99.90;;;;;;4955093;29;20596;-84
2022/11/29 05:33:12;;;;;;;39.65;17.33;;;8.00;99.90;;;;;;5011540;28;20216;-84
2022/11/29 05:36:10;;;;;;;39.45;17.65;;;8.00;99.90;;;;;;5035678;28;20514;-84
2022/11/29 05:39:10;;;;;;;35.17;17.15;;;8.00;99.90;;;;;;5035169;28;20634;-84
2022/11/29 05:42:07;;;;;;;46.85;19.45;;;8.10;99.90;;;;;;4992856;28;20230;-83
2022/11/29 05:44:56;;;;;;;48.90;20.80;;;8.00;99.90;;;;;;5035409;28;20203;-84
2022/11/29 05:47:54;;;;;;;51.65;20.60;;;8.00;99.90;;;;;;5034981;28;20170;-84
2022/11/29 05:50:29;;;;;;;54.78;21.83;;;7.90;99.90;;;;;;5019623;28;20182;-83
2022/11/29 05:53:06;;;;;;;50.47;21.33;;;7.90;99.90;;;;;;5035460;28;20177;-83
2022/11/29 05:55:57;;;;;;;61.63;24.83;;;8.00;99.90;;;;;;5035230;28;20176;-83
2022/11/29 05:58:34;;;;;;;50.83;21.13;;;7.90;99.90;;;;;;5017009;28;20631;-83
2022/11/29 06:01:21;;;;;;;55.03;23.70;;;8.00;99.90;;;;;;5034927;28;20327;-83
2022/11/29 06:04:02;;;;;;;67.88;24.13;;;8.00;99.90;;;;;;5017680;28;20182;-83
2022/11/29 06:06:55;;;;;;;61.03;23.70;;;8.00;99.90;;;;;;5017732;28;20201;-83
2022/11/29 06:09:40;;;;;;;62.65;24.23;;;8.00;99.90;;;;;;5017391;28;20240;-83
2022/11/29 06:12:19;;;;;;;59.75;24.63;;;8.10;99.90;;;;;;5034679;28;20637;-86
2022/11/29 06:15:10;;;;;;;82.78;26.38;;;8.00;99.90;;;;;;5035178;28;20223;-82
2022/11/29 06:17:57;;;;;;;51.67;22.73;;;8.00;99.90;;;;;;5035437;28;20235;-81
2022/11/29 06:20:32;;;;;;;64.57;24.38;;;8.00;99.90;;;;;;5034840;28;20210;-81
2022/11/29 06:23:15;;;;;;;69.50;26.13;;;8.00;99.90;;;;;;5017124;28;20201;-84
2022/11/29 06:25:47;;;;;;;62.38;24.45;;;8.00;99.90;;;;;;5034922;28;20248;-83
2022/11/29 06:28:29;;;;;;;62.72;23.75;;;8.00;99.90;;;;;;5035200;28;20200;-82
2022/11/29 06:31:10;;;;;;;69.00;24.98;;;8.00;99.90;;;;;;5034945;28;20166;-82
2022/11/29 06:33:55;;;;;;;82.30;26.88;;;7.90;99.90;;;;;;5034823;28;20185;-84
2022/11/29 06:36:26;;;;;;;73.10;25.60;;;8.00;99.90;;;;;;5016850;28;20321;-82
2022/11/29 06:38:52;;;;;;;68.10;25.75;;;8.00;99.90;;;;;;5034913;28;20186;-82
2022/11/29 06:41:21;;;;;;;62.50;26.40;;;8.00;99.90;;;;;;5034506;28;20221;-83
2022/11/29 06:43:47;;;;;;;81.53;25.52;;;8.10;99.90;;;;;;5017018;28;20432;-83
2022/11/29 06:46:25;;;;;;;94.63;28.85;;;8.00;99.90;;;;;;5017204;28;20218;-83
2022/11/29 06:49:11;;;;;;;93.75;29.70;;;8.00;99.90;;;;;;5034847;28;20169;-85
2022/11/29 06:52:04;;;;;;;89.15;28.67;;;8.10;99.90;;;;;;5017150;28;20189;-84
2022/11/29 06:54:55;;;;;;;104.05;31.23;;;8.10;99.90;;;;;;5037974;28;20167;-84
2022/11/29 06:57:27;;;;;;;84.43;27.73;;;8.20;99.90;;;;;;5020830;28;20288;-84
2022/11/29 07:00:16;;;;;;;71.82;27.38;;;8.10;99.90;;;;;;5020507;28;20247;-84
2022/11/29 07:03:05;;;;;;;83.35;28.23;;;8.10;99.90;;;;;;5027570;28;20266;-84
2022/11/29 07:05:32;;;;;;;92.60;28.25;;;8.20;99.90;;;;;;5038271;28;20166;-84
2022/11/29 07:08:19;;;;;;;70.40;24.75;;;8.20;99.90;;;;;;5017381;28;20377;-84
2022/11/29 07:10:48;;;;;;;68.75;25.38;;;8.00;99.90;;;;;;5017685;28;20182;-84
2022/11/29 07:13:15;;;;;;;101.05;30.42;;;8.00;99.90;;;;;;5018118;28;20191;-85
2022/11/29 07:15:58;;;;;;;71.20;26.60;;;8.10;99.90;;;;;;5017793;28;20523;-85
2022/11/29 07:18:32;;;;;;;74.60;28.45;;;8.10;99.90;;;;;;5017891;28;20155;-85
2022/11/29 07:21:29;;;;;;;73.57;26.88;;;8.20;99.90;;;;;;5018096;28;20199;-85
2022/11/29 07:24:15;;;;;;;65.53;26.30;;;8.10;99.90;;;;;;5018130;28;20229;-85
2022/11/29 07:27:16;;;;;;;61.47;25.85;;;8.00;99.90;;;;;;5018546;28;20163;-85
2022/11/29 07:29:58;;;;;;;75.78;27.67;;;8.00;99.90;;;;;;5017994;28;20186;-87
2022/11/29 07:32:40;;;;;;;65.07;28.20;;;8.00;99.90;;;;;;5017953;28;20175;-85
2022/11/29 07:35:34;;;;;;;69.13;27.52;;;8.10;99.90;;;;;;5017253;28;20182;-85
2022/11/29 07:38:14;;;;;;;70.38;28.35;;;8.00;99.90;;;;;;5018314;28;20206;-85
2022/11/29 07:40:51;;;;;;;68.85;27.15;;;8.00;99.90;;;;;;5018209;28;20194;-85
2022/11/29 07:43:20;;;;;;;75.97;27.75;;;8.00;99.90;;;;;;5017843;28;20178;-87
2022/11/29 07:45:46;;;;;;;67.65;26.33;;;8.10;99.90;;;;;;5029510;28;20189;-86
2022/11/29 07:48:12;;;;;;;67.47;27.37;;;8.00;99.90;;;;;;5037156;28;20183;-82
2022/11/29 07:50:39;;;;;;;60.58;25.50;;;8.00;99.90;;;;;;5038609;28;20197;-80
2022/11/29 07:53:05;;;;;;;70.32;28.00;;;8.00;99.90;;;;;;5038699;28;20175;-80
2022/11/29 07:55:33;;;;;;;75.33;27.10;;;8.00;99.90;;;;;;5007599;28;20248;-77
2022/11/29 07:57:59;;;;;;;67.47;25.20;;;8.00;99.90;;;;;;5016618;28;20171;-83
2022/11/29 08:00:24;;;;;;;78.90;30.67;;;8.00;99.90;;;;;;5018309;28;20197;-83
2022/11/29 08:02:50;;;;;;;63.40;27.30;;;8.00;99.90;;;;;;5016655;28;20354;-84
2022/11/29 08:05:16;;;;;;;69.10;27.70;;;8.00;99.90;;;;;;5017840;28;20187;-84
2022/11/29 08:07:42;;;;;;;77.20;35.33;;;8.00;99.90;;;;;;5026412;28;20475;-84
2022/11/29 08:10:11;;;;;;;69.10;31.27;;;7.90;99.90;;;;;;5003970;28;20268;-83
2022/11/29 08:12:42;;;;;;;78.85;29.95;;;8.00;99.90;;;;;;5019617;28;20265;-84
2022/11/29 08:15:08;;;;;;;55.13;26.35;;;8.00;99.90;;;;;;5020059;28;20182;-83
2022/11/29 08:17:36;;;;;;;77.97;26.10;;;8.00;99.90;;;;;;5003456;28;20236;-84
2022/11/29 08:20:02;;;;;;;70.45;25.58;;;8.00;99.90;;;;;;5037806;28;20213;-84
2022/11/29 08:22:27;;;;;;;64.13;24.83;;;8.00;99.90;;;;;;4987344;28;20250;-84
2022/11/29 08:24:53;;;;;;;82.23;24.80;;;8.00;99.90;;;;;;5019991;28;20533;-84
2022/11/29 08:27:18;;;;;;;68.37;23.73;;;8.00;99.90;;;;;;5019459;28;20273;-84
2022/11/29 08:29:44;;;;;;;71.23;26.63;;;8.00;99.90;;;;;;5003910;28;20178;-84
2022/11/29 08:32:09;;;;;;;56.57;23.13;;;8.00;99.90;;;;;;5037947;28;20185;-84
2022/11/29 08:34:35;;;;;;;54.53;23.43;;;8.00;99.90;;;;;;5002566;28;20666;-84
2022/11/29 08:37:01;;;;;;;45.27;23.13;;;8.00;99.90;;;;;;5037863;28;20646;-85
2022/11/29 08:39:26;;;;;;;57.30;22.83;;;8.00;99.90;;;;;;5037086;28;20202;-84
2022/11/29 08:41:55;;;;;;;61.20;23.87;;;8.10;99.90;;;;;;5003519;28;20294;-84
2022/11/29 08:44:20;;;;;;;56.90;23.73;;;8.00;99.90;;;;;;5037274;28;20197;-84
2022/11/29 08:49:30;;;;;;;59.83;22.80;;;8.10;99.90;;;;;;5022001;28;20228;-85
2022/11/29 08:53:39;;;;;;;61.73;24.57;;;8.20;99.90;;;;;;5036940;28;20280;-85
2022/11/29 08:54:41;;;;;;;53.60;22.95;;;8.20;99.90;;;;;;5036904;28;20174;-84
2022/11/29 08:57:07;;;;;;;50.97;22.00;;;8.20;99.90;;;;;;5037827;28;20188;-85
2022/11/29 08:59:32;;;;;;;62.23;23.80;;;8.10;99.90;;;;;;5018899;28;20182;-85
2022/11/29 09:01:58;;;;;;;57.77;23.37;;;8.10;99.90;;;;;;5040233;28;20685;-84
2022/11/29 09:04:23;;;;;;;60.53;24.33;;;8.00;99.90;;;;;;5019671;28;20221;-86
2022/11/29 09:06:49;;;;;;;55.93;22.97;;;8.10;99.90;;;;;;5002155;28;20192;-85
2022/11/29 09:09:15;;;;;;;55.57;25.17;;;8.20;99.90;;;;;;5018828;28;20177;-86
2022/11/29 09:11:41;;;;;;;59.88;25.30;;;8.10;99.90;;;;;;5037337;28;20531;-85
2022/11/29 09:14:10;;;;;;;54.47;23.67;;;8.10;99.90;;;;;;5019057;28;20193;-85
2022/11/29 09:16:37;;;;;;;54.70;24.40;;;8.10;99.90;;;;;;5035588;28;20752;-85
2022/11/29 09:19:04;;;;;;;57.35;23.27;;;8.10;99.90;;;;;;5018740;28;20273;-85
2022/11/29 09:21:31;;;;;;;56.17;24.83;;;8.20;99.90;;;;;;5035880;28;20209;-85
2022/11/29 09:23:59;;;;;;;55.63;22.85;;;8.20;99.90;;;;;;5036403;28;20178;-85
2022/11/29 09:26:28;;;;;;;53.50;24.67;;;8.10;99.90;;;;;;5036493;28;20241;-85
2022/11/29 09:28:54;;;;;;;49.28;23.13;;;8.10;99.90;;;;;;5018236;28;20619;-85
2022/11/29 09:31:20;;;;;;;56.97;23.20;;;8.20;99.90;;;;;;5018509;28;20186;-85
2022/11/29 09:33:46;;;;;;;60.03;24.33;;;8.10;99.90;;;;;;5002092;28;20417;-85
2022/11/29 09:36:12;;;;;;;50.95;23.83;;;8.10;99.90;;;;;;5002140;28;20556;-85
2022/11/29 09:38:38;;;;;;;57.10;24.13;;;8.10;99.90;;;;;;5018557;28;20548;-85
2022/11/29 09:41:35;;;;;;;45.63;22.87;;;8.20;99.90;;;;;;5036013;28;20214;-85
2022/11/29 09:44:19;;;;;;;49.67;25.05;;;8.20;99.90;;;;;;5018545;28;20421;-86
2022/11/29 09:46:52;;;;;;;49.60;23.33;;;8.30;99.90;;;;;;5035804;28;20192;-85
2022/11/29 09:49:32;;;;;;;54.60;23.50;;;8.30;99.90;;;;;;5035832;28;20292;-87
2022/11/29 09:52:12;;;;;;;61.70;26.63;;;8.30;99.90;;;;;;5018345;28;20197;-85
2022/11/29 09:54:53;;;;;;;53.17;23.55;;;8.30;99.90;;;;;;5018116;28;20174;-85
2022/11/29 09:57:22;;;;;;;50.33;25.67;;;8.30;99.90;;;;;;5018161;28;20578;-87
2022/11/29 09:59:52;;;;;;;58.92;25.55;;;8.30;99.90;;;;;;5017664;28;20192;-85
2022/11/29 10:02:44;;;;;;;51.25;26.80;;;8.20;99.90;;;;;;5017566;28;20213;-89
2022/11/29 10:05:24;;;;;;;55.70;25.55;;;8.30;99.90;;;;;;5035425;28;20166;-85
2022/11/29 10:07:54;;;;;;;63.17;25.67;;;8.30;99.90;;;;;;5017836;28;20266;-85
2022/11/29 10:10:42;;;;;;;58.15;25.08;;;8.40;99.90;;;;;;5034706;28;20210;-87
2022/11/29 10:13:22;;;;;;;53.28;23.88;;;8.40;99.90;;;;;;5034534;28;20333;-86
2022/11/29 10:15:55;;;;;;;46.88;24.35;;;8.50;99.90;;;;;;5017807;28;20178;-86
2022/11/29 10:18:44;;;;;;;44.20;21.00;;;8.50;99.90;;;;;;5035213;28;20158;-86
2022/11/29 10:21:24;;;;;;;44.95;22.00;;;8.50;99.90;;;;;;5035331;28;20197;-84
2022/11/29 10:24:01;;;;;;;47.35;23.75;;;8.50;99.90;;;;;;5031395;28;20626;-85
2022/11/29 10:26:27;;;;;;;47.95;21.17;;;8.60;99.90;;;;;;5017057;28;20178;-86
2022/11/29 10:28:55;;;;;;;48.90;23.43;;;8.70;99.90;;;;;;5000357;28;20188;-85
2022/11/29 10:31:27;;;;;;;47.97;21.90;;;8.70;99.90;;;;;;5017642;28;20179;-88
2022/11/29 10:33:55;;;;;;;48.20;20.10;;;8.60;99.90;;;;;;5017401;28;20185;-85
2022/11/29 10:36:39;;;;;;;41.33;19.35;;;8.50;99.90;;;;;;5035005;28;20600;-89
2022/11/29 10:39:19;;;;;;;44.53;21.48;;;8.50;99.90;;;;;;5017078;28;20210;-85
2022/11/29 10:41:49;;;;;;;52.33;21.55;;;8.40;99.90;;;;;;5034885;28;20247;-85
2022/11/29 10:44:14;;;;;;;46.35;20.77;;;8.50;99.90;;;;;;5034291;28;20190;-84
2022/11/29 10:46:40;;;;;;;45.73;21.60;;;8.50;99.90;;;;;;5017414;28;20537;-84
2022/11/29 10:49:12;;;;;;;41.27;21.13;;;8.50;99.90;;;;;;5018021;28;20273;-85
2022/11/29 10:51:37;;;;;;;43.95;21.77;;;8.60;99.90;;;;;;5034926;28;20166;-85
2022/11/29 10:54:25;;;;;;;44.03;21.03;;;8.70;99.90;;;;;;5000772;28;20592;-87
2022/11/29 10:56:51;;;;;;;50.20;21.08;;;8.70;99.90;;;;;;5034770;28;20205;-85
2022/11/29 10:59:27;;;;;;;36.47;20.60;;;8.70;99.90;;;;;;5017030;28;20182;-85
2022/11/29 11:01:53;;;;;;;47.95;23.92;;;8.80;99.90;;;;;;5017225;28;20456;-84
2022/11/29 11:04:32;;;;;;;46.58;22.52;;;8.80;99.90;;;;;;5034712;28;20190;-85
2022/11/29 11:07:01;;;;;;;47.03;22.95;;;8.70;99.90;;;;;;5034218;28;20221;-85
2022/11/29 11:09:45;;;;;;;53.38;22.30;;;8.80;99.90;;;;;;5034525;28;20327;-85
2022/11/29 11:12:14;;;;;;;56.85;24.80;;;8.80;99.90;;;;;;5034785;28;20193;-85
2022/11/29 11:14:40;;;;;;;45.30;23.23;;;8.80;99.90;;;;;;5034256;28;20178;-85
2022/11/29 11:17:21;;;;;;;64.38;25.33;;;8.90;99.90;;;;;;5016814;28;20549;-86
2022/11/29 11:20:07;;;;;;;56.58;25.60;;;8.90;99.90;;;;;;5016697;28;20178;-85
2022/11/29 11:22:34;;;;;;;50.42;23.38;;;8.80;99.90;;;;;;5034074;28;20536;-85
2022/11/29 11:25:23;;;;;;;51.03;24.88;;;8.80;99.90;;;;;;5034536;28;20185;-85
2022/11/29 11:27:48;;;;;;;68.65;26.35;;;8.90;99.90;;;;;;5033921;28;20181;-85
2022/11/29 11:30:22;;;;;;;61.83;28.33;;;9.00;99.90;;;;;;5016284;28;20272;-85
2022/11/29 11:33:18;;;;;;;53.50;25.20;;;9.10;99.90;;;;;;5034472;28;20401;-85
2022/11/29 11:35:59;;;;;;;51.75;24.50;;;9.00;99.90;;;;;;5034113;28;20171;-85
2022/11/29 11:38:24;;;;;;;49.78;25.50;;;9.00;99.90;;;;;;5033710;28;20643;-88
2022/11/29 11:41:17;;;;;;;62.03;26.63;;;9.10;99.90;;;;;;5037824;28;20252;-85
2022/11/29 11:43:56;;;;;;;52.50;23.73;;;9.10;99.90;;;;;;5019300;28;20193;-85
2022/11/29 11:46:22;;;;;;;55.75;24.63;;;9.10;99.90;;;;;;5037703;28;20171;-86
2022/11/29 11:48:49;;;;;;;64.28;26.70;;;9.00;99.90;;;;;;5034577;28;20253;-86
2022/11/29 11:51:24;;;;;;;53.53;24.48;;;8.90;99.90;;;;;;5017532;28;20186;-88
2022/11/29 11:53:54;;;;;;;56.75;24.48;;;9.00;99.90;;;;;;5034463;28;20170;-85
2022/11/29 11:56:21;;;;;;;44.50;22.40;;;8.90;99.90;;;;;;5034248;28;20210;-86
2022/11/29 11:58:55;;;;;;;57.88;27.23;;;9.00;99.90;;;;;;5033764;28;20186;-86
2022/11/29 12:01:26;;;;;;;53.58;23.85;;;8.90;99.90;;;;;;5035244;28;20228;-85
2022/11/29 12:04:11;;;;;;;52.10;25.50;;;8.90;99.90;;;;;;5037349;28;20178;-86
2022/11/29 12:06:52;;;;;;;48.20;23.95;;;8.90;99.90;;;;;;5037001;28;20178;-86
2022/11/29 12:09:20;;;;;;;51.10;24.80;;;8.90;99.90;;;;;;5037791;28;20555;-86
2022/11/29 12:12:10;;;;;;;47.85;22.42;;;8.80;99.90;;;;;;5036738;28;20283;-86
2022/11/29 12:15:04;;;;;;;51.90;25.17;;;8.90;99.90;;;;;;5018414;28;20240;-87
2022/11/29 12:17:38;;;;;;;54.05;24.23;;;8.90;99.90;;;;;;5019678;28;20182;-85
2022/11/29 12:20:22;;;;;;;46.75;23.98;;;8.80;99.90;;;;;;5019242;28;20177;-86
2022/11/29 12:23:01;;;;;;;57.85;27.38;;;8.90;99.90;;;;;;5036890;28;20304;-85
2022/11/29 12:25:32;;;;;;;58.88;25.30;;;8.90;99.90;;;;;;5037279;28;20262;-87
2022/11/29 12:27:58;;;;;;;50.67;24.80;;;8.90;99.90;;;;;;5036573;28;20574;-86
2022/11/29 12:30:23;;;;;;;46.83;23.30;;;9.00;99.90;;;;;;5019557;28;20186;-86
2022/11/29 12:33:16;;;;;;;45.03;22.17;;;9.00;99.90;;;;;;5019479;28;20224;-86
2022/11/29 12:35:54;;;;;;;45.97;22.88;;;8.90;99.90;;;;;;5019169;28;20178;-86
2022/11/29 12:38:42;;;;;;;46.80;23.35;;;8.90;99.90;;;;;;5019016;28;20182;-85
2022/11/29 12:42:04;;;;;;;47.95;22.00;;;8.90;99.90;;;;;;5018873;28;20662;-86
2022/11/29 12:44:56;;;;;;;49.33;23.17;;;8.90;99.90;;;;;;4956247;29;20184;-86
2022/11/29 12:48:03;;;;;;;54.13;22.65;;;8.90;99.90;;;;;;4956090;28;20346;-86
2022/11/29 12:50:55;;;;;;;47.83;22.42;;;9.00;99.90;;;;;;4979978;28;20509;-88
2022/11/29 12:53:50;;;;;;;46.78;23.00;;;8.90;99.90;;;;;;5037071;28;20512;-86
2022/11/29 12:56:46;;;;;;;44.45;23.80;;;9.10;99.90;;;;;;5001924;28;20186;-86
2022/11/29 12:59:37;;;;;;;48.63;25.33;;;9.10;99.90;;;;;;5017745;28;20704;-86
2022/11/29 13:02:27;;;;;;;44.20;22.23;;;9.00;99.90;;;;;;5036330;28;20198;-86
2022/11/29 13:05:11;;;;;;;49.50;21.77;;;9.00;99.90;;;;;;5035846;28;20197;-86
2022/11/29 13:07:55;;;;;;;46.92;22.52;;;9.00;99.90;;;;;;5018302;28;20253;-86
2022/11/29 13:10:52;;;;;;;47.65;24.85;;;8.90;99.90;;;;;;5018728;28;20184;-85
2022/11/29 13:13:57;;;;;;;47.75;24.13;;;8.90;99.90;;;;;;5035828;28;20249;-86
2022/11/29 13:16:38;;;;;;;47.33;25.42;;;8.90;99.90;;;;;;5001309;28;20277;-86
2022/11/29 13:19:22;;;;;;;50.75;23.10;;;8.90;99.90;;;;;;5018293;28;20651;-86
2022/11/29 13:22:04;;;;;;;45.38;22.33;;;8.90;99.90;;;;;;5035609;28;20547;-86
2022/11/29 13:24:41;;;;;;;47.58;22.95;;;9.00;99.90;;;;;;5035803;28;20170;-87
2022/11/29 13:27:18;;;;;;;42.70;22.38;;;9.00;99.90;;;;;;5035780;28;20174;-86
2022/11/29 13:29:44;;;;;;;50.35;25.40;;;9.00;99.90;;;;;;5035981;28;20240;-85
2022/11/29 13:32:28;;;;;;;45.15;23.08;;;8.90;99.90;;;;;;5001857;28;20182;-86
2022/11/29 13:34:56;;;;;;;52.10;25.13;;;9.00;99.90;;;;;;5017955;28;20217;-86
2022/11/29 13:37:31;;;;;;;44.88;23.33;;;9.00;99.90;;;;;;5018011;28;20643;-85